Terminal Aerodrome Forecast
Issued by NWS

Current Version | Previous Version | Text Only | Print | Product List | Glossary Off
Versions: 1 2 3 4 5 6 7 8 9 10 11 12 13 14 15 16 17 18 19 20 21 22 23 24 25 26 27 28 29 30 31

121
FTUS41 KILN 281103 AAC
TAFLUK
TAF AMD
KLUK 281103Z 2811/2906 03003KT P6SM SCT130 BKN250
     FM281300 02003KT P6SM SCT120 BKN250
     FM281600 02004KT P6SM SCT040 BKN250
     FM290000 VRB03KT P6SM SCT130 BKN250=

USA.gov is the U.S. government's official web portal to all federal, state and local government web resources and services.